Aérodrome :
LOGIN :

S'inscrire | Disclaimer

   EN    FR    IT 

 










Légende :    VFR   VFR Marginal   IFR   IFR Intensif   IFR Très Intensif
Visi : 
Plafond : 
>= 8 km
>= 3000ft
5 à 8 km
1000 à 3000 ft
1500m à 5 km
500 à 1000 ft
800 à 1500m
200 à 500 ft
< 800m
< 200 ft
Symboles :   Orages  Brouillard  Fortes neiges  Fortes précipitations  Vent > 20 kt
SIGMETs :   Divers  Orages  Givrage  Turbulence  Onde Orograph.  Cendres Volcan.







- Altitude de l'aérodrome : 1966 ft
- Code IATA : SGE


EDGS - Siegerland

DERNIER METAR :
  • 251420Z 29010KT 230V330 9999 SCT042 BKN054 05/M03 Q1008

METARs EXPIRÉS :
  • 251350Z 28008KT 9999 VCSH BKN042 05/M04 Q1007
  • 251320Z 29012KT 9999 BKN040 05/M04 Q1007
  • 251250Z 28010G20KT 9999 SCT042 05/M04 Q1007
  • 251220Z 29011KT 240V340 9999 BKN040 05/M04 Q1007
  • 251150Z 29013G23KT 220V320 9999 FEW022 BKN042 05/M04 Q1007

TAF TAF EDGS
Valide du 25 à 15h jusqu'au 26 à 00h UTC


251400Z 2515/2524 29010KT 9999 BKN030
PROB30
TEMPO 2515/2517 29015G25KT 4500 SHRAGS BKN012CB
BECMG 2517/2520 31005KT
Pas de NOTAMs connus pour ce terrain.



MET'MAP, la Météo Aéronautique d'un coup d'oeil ! - Copyright ORBIFLY Décembre 2007 - Disclaimer

ORBIFLY MET'MAP TEAM :

Programmation & Développement : Alexandra Zaïnal
Conception & Développement : Baudouin d'Aumeries
Co-Programmation & Développement : Marc-Olivier Méhu
Soutien technique & logistique : Manuel Goepfert

Contact : metmap@orbifly.com




SOURCES & CREDITS :

   NOAA